sensor_id;sensor_type;location;lat;lon;timestamp;temperature;humidity
83146;DHT22;73037;51.110;4.706;2024-02-28T00:01:27;4.50;0.00
83146;DHT22;73037;51.110;4.706;2024-02-28T00:03:53;4.70;0.00
83146;DHT22;73037;51.110;4.706;2024-02-28T00:06:18;4.70;0.00
83146;DHT22;73037;51.110;4.706;2024-02-28T00:08:44;4.90;0.00
83146;DHT22;73037;51.110;4.706;2024-02-28T00:11:10;4.90;0.00
83146;DHT22;73037;51.110;4.706;2024-02-28T00:13:36;5.00;0.00
83146;DHT22;73037;51.110;4.706;2024-02-28T00:16:02;5.10;0.00
83146;DHT22;73037;51.110;4.706;2024-02-28T00:18:29;5.10;0.00
83146;DHT22;73037;51.110;4.706;2024-02-28T00:20:56;5.20;0.00
83146;DHT22;73037;51.110;4.706;2024-02-28T00:23:22;5.30;0.00
83146;DHT22;73037;51.110;4.706;2024-02-28T00:25:47;5.30;0.00
83146;DHT22;73037;51.110;4.706;2024-02-28T00:28:13;5.30;0.00
83146;DHT22;73037;51.110;4.706;2024-02-28T00:30:39;5.10;0.00
83146;DHT22;73037;51.110;4.706;2024-02-28T00:33:06;5.00;0.00
83146;DHT22;73037;51.110;4.706;2024-02-28T00:35:32;4.90;0.00
83146;DHT22;73037;51.110;4.706;2024-02-28T00:38:01;4.70;0.00
83146;DHT22;73037;51.110;4.706;2024-02-28T00:40:27;4.60;0.00
83146;DHT22;73037;51.110;4.706;2024-02-28T00:42:54;4.50;0.00
83146;DHT22;73037;51.110;4.706;2024-02-28T00:45:20;4.50;0.00
83146;DHT22;73037;51.110;4.706;2024-02-28T00:47:45;4.40;0.00
83146;DHT22;73037;51.110;4.706;2024-02-28T00:50:11;4.30;0.00
83146;DHT22;73037;51.110;4.706;2024-02-28T00:52:37;4.20;0.00
83146;DHT22;73037;51.110;4.706;2024-02-28T00:55:03;4.10;0.00
83146;DHT22;73037;51.110;4.706;2024-02-28T00:57:30;4.10;0.00
83146;DHT22;73037;51.110;4.706;2024-02-28T00:59:56;4.10;0.00
83146;DHT22;73037;51.110;4.706;2024-02-28T01:02:22;4.00;0.00
83146;DHT22;73037;51.110;4.706;2024-02-28T01:04:47;4.00;0.00
83146;DHT22;73037;51.110;4.706;2024-02-28T01:07:13;3.90;0.00
83146;DHT22;73037;51.110;4.706;2024-02-28T01:09:38;3.90;0.00
83146;DHT22;73037;51.110;4.706;2024-02-28T01:12:04;3.90;0.00
83146;DHT22;73037;51.110;4.706;2024-02-28T01:14:30;3.90;0.00
83146;DHT22;73037;51.110;4.706;2024-02-28T01:16:56;3.80;0.00
83146;DHT22;73037;51.110;4.706;2024-02-28T01:19:21;3.70;0.00
83146;DHT22;73037;51.110;4.706;2024-02-28T01:21:47;3.70;0.00
83146;DHT22;73037;51.110;4.706;2024-02-28T01:24:12;3.70;0.00
83146;DHT22;73037;51.110;4.706;2024-02-28T01:26:38;3.70;0.00
83146;DHT22;73037;51.110;4.706;2024-02-28T01:29:05;3.60;0.00
83146;DHT22;73037;51.110;4.706;2024-02-28T01:31:31;3.60;0.00
83146;DHT22;73037;51.110;4.706;2024-02-28T01:33:56;3.60;0.00
83146;DHT22;73037;51.110;4.706;2024-02-28T01:36:23;3.50;0.00
83146;DHT22;73037;51.110;4.706;2024-02-28T01:38:48;3.50;0.00
83146;DHT22;73037;51.110;4.706;2024-02-28T01:41:14;3.50;0.00
83146;DHT22;73037;51.110;4.706;2024-02-28T01:43:40;3.50;0.00
83146;DHT22;73037;51.110;4.706;2024-02-28T01:46:33;3.50;0.00
83146;DHT22;73037;51.110;4.706;2024-02-28T01:48:58;3.50;0.00
83146;DHT22;73037;51.110;4.706;2024-02-28T01:51:25;3.50;0.00
83146;DHT22;73037;51.110;4.706;2024-02-28T01:53:54;3.40;0.00
83146;DHT22;73037;51.110;4.706;2024-02-28T01:56:20;3.30;0.00
83146;DHT22;73037;51.110;4.706;2024-02-28T01:58:49;3.30;0.00
83146;DHT22;73037;51.110;4.706;2024-02-28T02:01:16;3.30;0.00
83146;DHT22;73037;51.110;4.706;2024-02-28T02:03:45;3.30;0.00
83146;DHT22;73037;51.110;4.706;2024-02-28T02:06:11;3.30;0.00
83146;DHT22;73037;51.110;4.706;2024-02-28T02:08:38;3.20;0.00
83146;DHT22;73037;51.110;4.706;2024-02-28T02:11:04;3.20;0.00
83146;DHT22;73037;51.110;4.706;2024-02-28T02:13:31;3.20;0.00
83146;DHT22;73037;51.110;4.706;2024-02-28T02:15:56;3.20;0.00
83146;DHT22;73037;51.110;4.706;2024-02-28T02:18:22;3.20;0.00
83146;DHT22;73037;51.110;4.706;2024-02-28T02:20:52;3.10;0.00
83146;DHT22;73037;51.110;4.706;2024-02-28T02:23:19;3.10;0.00
83146;DHT22;73037;51.110;4.706;2024-02-28T02:25:49;3.10;0.00
83146;DHT22;73037;51.110;4.706;2024-02-28T02:28:15;3.10;0.00
83146;DHT22;73037;51.110;4.706;2024-02-28T02:30:41;3.10;0.00
83146;DHT22;73037;51.110;4.706;2024-02-28T02:33:08;3.10;0.00
83146;DHT22;73037;51.110;4.706;2024-02-28T02:35:34;3.10;0.00
83146;DHT22;73037;51.110;4.706;2024-02-28T02:38:00;3.10;0.00
83146;DHT22;73037;51.110;4.706;2024-02-28T02:40:26;3.10;0.00
83146;DHT22;73037;51.110;4.706;2024-02-28T02:42:51;3.10;0.00
83146;DHT22;73037;51.110;4.706;2024-02-28T02:45:17;3.10;0.00
83146;DHT22;73037;51.110;4.706;2024-02-28T02:47:43;3.10;0.00
83146;DHT22;73037;51.110;4.706;2024-02-28T02:50:11;3.10;0.00
83146;DHT22;73037;51.110;4.706;2024-02-28T02:52:37;3.10;0.00
83146;DHT22;73037;51.110;4.706;2024-02-28T02:55:03;3.20;0.00
83146;DHT22;73037;51.110;4.706;2024-02-28T02:57:31;3.20;0.00
83146;DHT22;73037;51.110;4.706;2024-02-28T02:59:57;3.30;0.00
83146;DHT22;73037;51.110;4.706;2024-02-28T03:02:23;3.30;0.00
83146;DHT22;73037;51.110;4.706;2024-02-28T03:04:48;3.20;0.00
83146;DHT22;73037;51.110;4.706;2024-02-28T03:07:14;3.20;0.00
83146;DHT22;73037;51.110;4.706;2024-02-28T03:09:40;3.20;0.00
83146;DHT22;73037;51.110;4.706;2024-02-28T03:12:06;3.10;0.00
83146;DHT22;73037;51.110;4.706;2024-02-28T03:14:32;3.10;0.00
83146;DHT22;73037;51.110;4.706;2024-02-28T03:16:58;3.10;0.00
83146;DHT22;73037;51.110;4.706;2024-02-28T03:19:23;3.10;0.00
83146;DHT22;73037;51.110;4.706;2024-02-28T03:21:49;3.10;0.00
83146;DHT22;73037;51.110;4.706;2024-02-28T03:24:15;3.10;0.00
83146;DHT22;73037;51.110;4.706;2024-02-28T03:26:40;3.10;0.00
83146;DHT22;73037;51.110;4.706;2024-02-28T03:29:07;3.10;0.00
83146;DHT22;73037;51.110;4.706;2024-02-28T03:31:33;3.00;0.00
83146;DHT22;73037;51.110;4.706;2024-02-28T03:33:59;3.10;0.00
83146;DHT22;73037;51.110;4.706;2024-02-28T03:36:24;3.10;0.00
83146;DHT22;73037;51.110;4.706;2024-02-28T03:38:50;3.10;0.00
83146;DHT22;73037;51.110;4.706;2024-02-28T03:41:16;3.00;0.00
83146;DHT22;73037;51.110;4.706;2024-02-28T03:43:41;3.00;0.00
83146;DHT22;73037;51.110;4.706;2024-02-28T03:46:07;3.00;0.00
83146;DHT22;73037;51.110;4.706;2024-02-28T03:48:33;3.10;0.00
83146;DHT22;73037;51.110;4.706;2024-02-28T03:50:59;3.10;0.00
83146;DHT22;73037;51.110;4.706;2024-02-28T03:53:24;3.10;0.00
83146;DHT22;73037;51.110;4.706;2024-02-28T03:55:50;3.10;0.00
83146;DHT22;73037;51.110;4.706;2024-02-28T03:58:15;3.00;0.00
83146;DHT22;73037;51.110;4.706;2024-02-28T04:00:41;3.00;0.00
83146;DHT22;73037;51.110;4.706;2024-02-28T04:03:09;3.00;0.00
83146;DHT22;73037;51.110;4.706;2024-02-28T04:05:35;3.00;0.00
83146;DHT22;73037;51.110;4.706;2024-02-28T04:08:01;3.00;0.00
83146;DHT22;73037;51.110;4.706;2024-02-28T04:10:26;2.90;0.00
83146;DHT22;73037;51.110;4.706;2024-02-28T04:12:52;2.90;0.00
83146;DHT22;73037;51.110;4.706;2024-02-28T04:15:18;2.90;0.00
83146;DHT22;73037;51.110;4.706;2024-02-28T04:17:43;2.90;0.00
83146;DHT22;73037;51.110;4.706;2024-02-28T04:20:12;3.00;0.00
83146;DHT22;73037;51.110;4.706;2024-02-28T04:22:38;2.90;0.00
83146;DHT22;73037;51.110;4.706;2024-02-28T04:25:05;2.90;0.00
83146;DHT22;73037;51.110;4.706;2024-02-28T04:27:31;2.90;0.00
83146;DHT22;73037;51.110;4.706;2024-02-28T04:29:56;2.90;0.00
83146;DHT22;73037;51.110;4.706;2024-02-28T04:32:22;2.90;0.00
83146;DHT22;73037;51.110;4.706;2024-02-28T04:34:48;2.90;0.00
83146;DHT22;73037;51.110;4.706;2024-02-28T04:37:13;2.90;0.00
83146;DHT22;73037;51.110;4.706;2024-02-28T04:39:40;2.90;0.00
83146;DHT22;73037;51.110;4.706;2024-02-28T04:42:05;2.80;0.00
83146;DHT22;73037;51.110;4.706;2024-02-28T04:44:31;2.80;0.00
83146;DHT22;73037;51.110;4.706;2024-02-28T04:46:57;2.80;0.00
83146;DHT22;73037;51.110;4.706;2024-02-28T04:49:22;2.80;0.00
83146;DHT22;73037;51.110;4.706;2024-02-28T04:51:48;2.80;0.00
83146;DHT22;73037;51.110;4.706;2024-02-28T04:54:14;2.80;0.00
83146;DHT22;73037;51.110;4.706;2024-02-28T04:56:43;2.80;0.00
83146;DHT22;73037;51.110;4.706;2024-02-28T04:59:11;2.70;0.00
83146;DHT22;73037;51.110;4.706;2024-02-28T05:01:36;2.70;0.00
83146;DHT22;73037;51.110;4.706;2024-02-28T05:04:06;2.70;0.00
83146;DHT22;73037;51.110;4.706;2024-02-28T05:06:32;2.70;0.00
83146;DHT22;73037;51.110;4.706;2024-02-28T05:08:57;2.70;0.00
83146;DHT22;73037;51.110;4.706;2024-02-28T05:11:23;2.70;0.00
83146;DHT22;73037;51.110;4.706;2024-02-28T05:13:49;2.70;0.00
83146;DHT22;73037;51.110;4.706;2024-02-28T05:16:15;2.70;0.00
83146;DHT22;73037;51.110;4.706;2024-02-28T05:18:41;2.70;0.00
83146;DHT22;73037;51.110;4.706;2024-02-28T05:21:07;2.70;0.00
83146;DHT22;73037;51.110;4.706;2024-02-28T05:23:33;2.70;0.00
83146;DHT22;73037;51.110;4.706;2024-02-28T05:25:59;2.70;0.00
83146;DHT22;73037;51.110;4.706;2024-02-28T05:28:35;2.80;0.00
83146;DHT22;73037;51.110;4.706;2024-02-28T05:31:25;2.80;0.00
83146;DHT22;73037;51.110;4.706;2024-02-28T05:33:55;2.80;0.00
83146;DHT22;73037;51.110;4.706;2024-02-28T05:36:25;2.80;0.00
83146;DHT22;73037;51.110;4.706;2024-02-28T05:38:53;2.80;0.00
83146;DHT22;73037;51.110;4.706;2024-02-28T05:41:19;2.80;0.00
83146;DHT22;73037;51.110;4.706;2024-02-28T05:43:46;2.80;0.00
83146;DHT22;73037;51.110;4.706;2024-02-28T05:46:12;2.80;0.00
83146;DHT22;73037;51.110;4.706;2024-02-28T05:48:40;2.80;0.00
83146;DHT22;73037;51.110;4.706;2024-02-28T05:51:06;2.80;0.00
83146;DHT22;73037;51.110;4.706;2024-02-28T05:53:31;2.80;0.00
83146;DHT22;73037;51.110;4.706;2024-02-28T05:56:01;2.80;0.00
83146;DHT22;73037;51.110;4.706;2024-02-28T05:58:27;2.90;0.00
83146;DHT22;73037;51.110;4.706;2024-02-28T06:00:52;2.80;0.00
83146;DHT22;73037;51.110;4.706;2024-02-28T06:03:18;2.80;0.00
83146;DHT22;73037;51.110;4.706;2024-02-28T06:05:44;2.80;0.00
83146;DHT22;73037;51.110;4.706;2024-02-28T06:08:09;2.80;0.00
83146;DHT22;73037;51.110;4.706;2024-02-28T06:10:35;2.80;0.00
83146;DHT22;73037;51.110;4.706;2024-02-28T06:13:02;2.80;0.00
83146;DHT22;73037;51.110;4.706;2024-02-28T06:15:28;2.80;0.00
83146;DHT22;73037;51.110;4.706;2024-02-28T06:17:56;2.80;0.00
83146;DHT22;73037;51.110;4.706;2024-02-28T06:20:21;2.80;0.00
83146;DHT22;73037;51.110;4.706;2024-02-28T06:22:47;2.80;0.00
83146;DHT22;73037;51.110;4.706;2024-02-28T06:25:12;2.90;0.00
83146;DHT22;73037;51.110;4.706;2024-02-28T06:27:47;2.90;0.00
83146;DHT22;73037;51.110;4.706;2024-02-28T06:30:13;2.90;0.00
83146;DHT22;73037;51.110;4.706;2024-02-28T06:32:39;2.90;0.00
83146;DHT22;73037;51.110;4.706;2024-02-28T06:35:05;3.00;0.00
83146;DHT22;73037;51.110;4.706;2024-02-28T06:37:31;3.10;0.00
83146;DHT22;73037;51.110;4.706;2024-02-28T06:39:56;3.30;0.00
83146;DHT22;73037;51.110;4.706;2024-02-28T06:42:22;3.50;0.00
83146;DHT22;73037;51.110;4.706;2024-02-28T06:44:48;3.60;0.00
83146;DHT22;73037;51.110;4.706;2024-02-28T06:47:13;3.90;0.00
83146;DHT22;73037;51.110;4.706;2024-02-28T06:49:39;3.90;0.00
83146;DHT22;73037;51.110;4.706;2024-02-28T06:52:05;4.00;0.00
83146;DHT22;73037;51.110;4.706;2024-02-28T06:54:31;4.00;0.00
83146;DHT22;73037;51.110;4.706;2024-02-28T06:56:57;4.20;0.00
83146;DHT22;73037;51.110;4.706;2024-02-28T06:59:23;4.30;0.00
83146;DHT22;73037;51.110;4.706;2024-02-28T07:01:49;4.40;0.00
83146;DHT22;73037;51.110;4.706;2024-02-28T07:04:14;4.60;0.00
83146;DHT22;73037;51.110;4.706;2024-02-28T07:06:40;4.70;0.00
83146;DHT22;73037;51.110;4.706;2024-02-28T07:09:08;4.90;0.00
83146;DHT22;73037;51.110;4.706;2024-02-28T07:11:34;5.00;0.00
83146;DHT22;73037;51.110;4.706;2024-02-28T07:13:59;5.10;0.00
83146;DHT22;73037;51.110;4.706;2024-02-28T07:16:28;5.00;0.00
83146;DHT22;73037;51.110;4.706;2024-02-28T07:18:54;5.00;0.00
83146;DHT22;73037;51.110;4.706;2024-02-28T07:21:19;5.10;0.00
83146;DHT22;73037;51.110;4.706;2024-02-28T07:23:45;5.20;0.00
83146;DHT22;73037;51.110;4.706;2024-02-28T07:26:15;5.30;0.00
83146;DHT22;73037;51.110;4.706;2024-02-28T07:28:41;5.50;0.00
83146;DHT22;73037;51.110;4.706;2024-02-28T07:31:07;5.50;0.00
83146;DHT22;73037;51.110;4.706;2024-02-28T07:33:32;5.50;0.00
83146;DHT22;73037;51.110;4.706;2024-02-28T07:35:58;5.60;0.00
83146;DHT22;73037;51.110;4.706;2024-02-28T07:38:27;5.70;0.00
83146;DHT22;73037;51.110;4.706;2024-02-28T07:40:53;5.80;0.00
83146;DHT22;73037;51.110;4.706;2024-02-28T07:43:19;5.90;0.00
83146;DHT22;73037;51.110;4.706;2024-02-28T07:45:44;6.00;0.00
83146;DHT22;73037;51.110;4.706;2024-02-28T07:48:10;6.00;0.00
83146;DHT22;73037;51.110;4.706;2024-02-28T07:50:35;6.10;0.00
83146;DHT22;73037;51.110;4.706;2024-02-28T07:53:02;6.30;0.00
83146;DHT22;73037;51.110;4.706;2024-02-28T07:55:28;6.30;0.00
83146;DHT22;73037;51.110;4.706;2024-02-28T07:57:54;6.50;0.00
83146;DHT22;73037;51.110;4.706;2024-02-28T08:00:19;6.60;0.00
83146;DHT22;73037;51.110;4.706;2024-02-28T08:02:46;6.70;0.00
83146;DHT22;73037;51.110;4.706;2024-02-28T08:05:13;6.70;0.00
83146;DHT22;73037;51.110;4.706;2024-02-28T08:07:39;6.90;0.00
83146;DHT22;73037;51.110;4.706;2024-02-28T08:10:05;7.00;0.00
83146;DHT22;73037;51.110;4.706;2024-02-28T08:12:31;7.20;0.00
83146;DHT22;73037;51.110;4.706;2024-02-28T08:14:57;7.80;0.00
83146;DHT22;73037;51.110;4.706;2024-02-28T08:17:23;8.50;0.00
83146;DHT22;73037;51.110;4.706;2024-02-28T08:19:49;9.20;0.00
83146;DHT22;73037;51.110;4.706;2024-02-28T08:22:14;9.50;0.00
83146;DHT22;73037;51.110;4.706;2024-02-28T08:24:40;9.60;0.00
83146;DHT22;73037;51.110;4.706;2024-02-28T08:27:06;10.00;0.00
83146;DHT22;73037;51.110;4.706;2024-02-28T08:29:31;10.30;0.00
83146;DHT22;73037;51.110;4.706;2024-02-28T08:31:58;10.40;0.00
83146;DHT22;73037;51.110;4.706;2024-02-28T08:34:24;10.20;0.00
83146;DHT22;73037;51.110;4.706;2024-02-28T08:36:50;10.10;0.00
83146;DHT22;73037;51.110;4.706;2024-02-28T08:39:17;9.70;0.00
83146;DHT22;73037;51.110;4.706;2024-02-28T08:41:42;9.40;0.00
83146;DHT22;73037;51.110;4.706;2024-02-28T08:44:08;9.20;0.00
83146;DHT22;73037;51.110;4.706;2024-02-28T08:46:34;9.00;0.00
83146;DHT22;73037;51.110;4.706;2024-02-28T08:48:59;8.90;0.00
83146;DHT22;73037;51.110;4.706;2024-02-28T08:51:25;9.00;0.00
83146;DHT22;73037;51.110;4.706;2024-02-28T08:53:51;9.00;0.00
83146;DHT22;73037;51.110;4.706;2024-02-28T08:56:18;9.00;0.00
83146;DHT22;73037;51.110;4.706;2024-02-28T08:58:43;9.20;0.00
83146;DHT22;73037;51.110;4.706;2024-02-28T09:01:14;9.40;0.00
83146;DHT22;73037;51.110;4.706;2024-02-28T09:03:40;9.20;0.00
83146;DHT22;73037;51.110;4.706;2024-02-28T09:06:06;9.10;0.00
83146;DHT22;73037;51.110;4.706;2024-02-28T09:08:32;9.00;0.00
83146;DHT22;73037;51.110;4.706;2024-02-28T09:10:58;9.10;0.00
83146;DHT22;73037;51.110;4.706;2024-02-28T09:13:23;9.00;0.00
83146;DHT22;73037;51.110;4.706;2024-02-28T09:15:49;9.00;0.00
83146;DHT22;73037;51.110;4.706;2024-02-28T09:18:16;9.00;0.00
83146;DHT22;73037;51.110;4.706;2024-02-28T09:20:42;8.90;0.00
83146;DHT22;73037;51.110;4.706;2024-02-28T09:23:08;8.90;0.00
83146;DHT22;73037;51.110;4.706;2024-02-28T09:25:33;9.00;0.00
83146;DHT22;73037;51.110;4.706;2024-02-28T09:28:01;9.00;0.00
83146;DHT22;73037;51.110;4.706;2024-02-28T09:30:27;9.20;0.00
83146;DHT22;73037;51.110;4.706;2024-02-28T09:32:53;9.20;0.00
83146;DHT22;73037;51.110;4.706;2024-02-28T09:35:19;9.20;0.00
83146;DHT22;73037;51.110;4.706;2024-02-28T09:37:45;9.40;0.00
83146;DHT22;73037;51.110;4.706;2024-02-28T09:40:11;9.40;0.00
83146;DHT22;73037;51.110;4.706;2024-02-28T09:42:38;9.60;0.00
83146;DHT22;73037;51.110;4.706;2024-02-28T09:45:04;9.80;0.00
83146;DHT22;73037;51.110;4.706;2024-02-28T09:47:30;9.80;0.00
83146;DHT22;73037;51.110;4.706;2024-02-28T09:49:57;9.70;0.00
83146;DHT22;73037;51.110;4.706;2024-02-28T09:52:26;9.40;0.00
83146;DHT22;73037;51.110;4.706;2024-02-28T09:54:53;9.20;0.00
83146;DHT22;73037;51.110;4.706;2024-02-28T09:57:19;9.20;0.00
83146;DHT22;73037;51.110;4.706;2024-02-28T09:59:45;9.20;0.00
83146;DHT22;73037;51.110;4.706;2024-02-28T10:02:11;9.20;0.00
83146;DHT22;73037;51.110;4.706;2024-02-28T10:04:38;9.40;0.00
83146;DHT22;73037;51.110;4.706;2024-02-28T10:07:11;9.30;0.00
83146;DHT22;73037;51.110;4.706;2024-02-28T10:09:41;9.30;0.00
83146;DHT22;73037;51.110;4.706;2024-02-28T10:12:06;9.20;0.00
83146;DHT22;73037;51.110;4.706;2024-02-28T10:14:32;9.20;0.00
83146;DHT22;73037;51.110;4.706;2024-02-28T10:16:58;9.20;0.00
83146;DHT22;73037;51.110;4.706;2024-02-28T10:19:24;9.20;0.00
83146;DHT22;73037;51.110;4.706;2024-02-28T10:21:50;9.20;0.00
83146;DHT22;73037;51.110;4.706;2024-02-28T10:24:16;9.30;0.00
83146;DHT22;73037;51.110;4.706;2024-02-28T10:26:46;9.40;0.00
83146;DHT22;73037;51.110;4.706;2024-02-28T10:29:23;9.70;0.00
83146;DHT22;73037;51.110;4.706;2024-02-28T10:31:55;9.80;0.00
83146;DHT22;73037;51.110;4.706;2024-02-28T10:34:21;10.10;0.00
83146;DHT22;73037;51.110;4.706;2024-02-28T10:36:47;10.30;0.00
83146;DHT22;73037;51.110;4.706;2024-02-28T10:39:13;10.60;0.00
83146;DHT22;73037;51.110;4.706;2024-02-28T10:41:40;11.00;0.00
83146;DHT22;73037;51.110;4.706;2024-02-28T10:44:05;11.30;0.00
83146;DHT22;73037;51.110;4.706;2024-02-28T10:46:31;11.30;0.00
83146;DHT22;73037;51.110;4.706;2024-02-28T10:48:57;11.40;0.00
83146;DHT22;73037;51.110;4.706;2024-02-28T10:51:25;11.50;0.00
83146;DHT22;73037;51.110;4.706;2024-02-28T10:54:11;11.50;0.00
83146;DHT22;73037;51.110;4.706;2024-02-28T10:56:41;11.50;0.00
83146;DHT22;73037;51.110;4.706;2024-02-28T10:59:08;11.50;0.00
83146;DHT22;73037;51.110;4.706;2024-02-28T11:01:39;11.50;0.00
83146;DHT22;73037;51.110;4.706;2024-02-28T11:04:08;11.50;0.00
83146;DHT22;73037;51.110;4.706;2024-02-28T11:06:33;11.70;0.00
83146;DHT22;73037;51.110;4.706;2024-02-28T11:09:00;11.70;0.00
83146;DHT22;73037;51.110;4.706;2024-02-28T11:11:32;11.80;0.00
83146;DHT22;73037;51.110;4.706;2024-02-28T11:13:58;11.70;0.00
83146;DHT22;73037;51.110;4.706;2024-02-28T11:16:32;11.90;0.00
83146;DHT22;73037;51.110;4.706;2024-02-28T11:18:59;11.90;0.00
83146;DHT22;73037;51.110;4.706;2024-02-28T11:21:27;12.00;0.00
83146;DHT22;73037;51.110;4.706;2024-02-28T11:24:00;12.00;0.00
83146;DHT22;73037;51.110;4.706;2024-02-28T11:26:27;12.00;0.00
83146;DHT22;73037;51.110;4.706;2024-02-28T11:28:56;12.20;0.00
83146;DHT22;73037;51.110;4.706;2024-02-28T11:31:22;12.20;0.00
83146;DHT22;73037;51.110;4.706;2024-02-28T11:33:48;12.20;0.00
83146;DHT22;73037;51.110;4.706;2024-02-28T11:36:14;12.30;0.00
83146;DHT22;73037;51.110;4.706;2024-02-28T11:38:40;12.50;0.00
83146;DHT22;73037;51.110;4.706;2024-02-28T11:41:07;12.50;0.00
83146;DHT22;73037;51.110;4.706;2024-02-28T11:43:33;12.50;0.00
83146;DHT22;73037;51.110;4.706;2024-02-28T11:46:08;12.50;0.00
83146;DHT22;73037;51.110;4.706;2024-02-28T11:48:34;12.50;0.00
83146;DHT22;73037;51.110;4.706;2024-02-28T11:50:59;12.50;0.00
83146;DHT22;73037;51.110;4.706;2024-02-28T11:53:26;12.50;0.00
83146;DHT22;73037;51.110;4.706;2024-02-28T11:55:54;12.80;0.00
83146;DHT22;73037;51.110;4.706;2024-02-28T11:58:21;13.00;0.00
83146;DHT22;73037;51.110;4.706;2024-02-28T12:00:50;12.90;0.00
83146;DHT22;73037;51.110;4.706;2024-02-28T12:03:23;12.80;0.00
83146;DHT22;73037;51.110;4.706;2024-02-28T12:05:49;12.80;0.00
83146;DHT22;73037;51.110;4.706;2024-02-28T12:08:17;12.90;0.00
83146;DHT22;73037;51.110;4.706;2024-02-28T12:10:43;13.00;0.00
83146;DHT22;73037;51.110;4.706;2024-02-28T12:13:09;13.00;0.00
83146;DHT22;73037;51.110;4.706;2024-02-28T12:15:36;12.90;0.00
83146;DHT22;73037;51.110;4.706;2024-02-28T12:18:08;12.80;0.00
83146;DHT22;73037;51.110;4.706;2024-02-28T12:20:35;12.80;0.00
83146;DHT22;73037;51.110;4.706;2024-02-28T12:23:03;12.80;0.00
83146;DHT22;73037;51.110;4.706;2024-02-28T12:25:29;12.50;0.00
83146;DHT22;73037;51.110;4.706;2024-02-28T12:27:55;12.50;0.00
83146;DHT22;73037;51.110;4.706;2024-02-28T12:30:20;12.70;0.00
83146;DHT22;73037;51.110;4.706;2024-02-28T12:32:46;12.90;0.00
83146;DHT22;73037;51.110;4.706;2024-02-28T12:35:11;12.90;0.00
83146;DHT22;73037;51.110;4.706;2024-02-28T12:37:37;12.90;0.00
83146;DHT22;73037;51.110;4.706;2024-02-28T12:40:05;13.00;0.00
83146;DHT22;73037;51.110;4.706;2024-02-28T12:42:31;13.00;0.00
83146;DHT22;73037;51.110;4.706;2024-02-28T12:44:57;13.20;0.00
83146;DHT22;73037;51.110;4.706;2024-02-28T12:47:23;13.10;0.00
83146;DHT22;73037;51.110;4.706;2024-02-28T12:49:48;13.10;0.00
83146;DHT22;73037;51.110;4.706;2024-02-28T12:52:14;13.00;0.00
83146;DHT22;73037;51.110;4.706;2024-02-28T12:54:39;12.80;0.00
83146;DHT22;73037;51.110;4.706;2024-02-28T12:57:05;12.50;0.00
83146;DHT22;73037;51.110;4.706;2024-02-28T12:59:32;12.50;0.00
83146;DHT22;73037;51.110;4.706;2024-02-28T13:01:58;12.50;0.00
83146;DHT22;73037;51.110;4.706;2024-02-28T13:04:24;12.60;0.00
83146;DHT22;73037;51.110;4.706;2024-02-28T13:06:51;12.70;0.00
83146;DHT22;73037;51.110;4.706;2024-02-28T13:09:18;12.90;0.00
83146;DHT22;73037;51.110;4.706;2024-02-28T13:11:45;13.00;0.00
83146;DHT22;73037;51.110;4.706;2024-02-28T13:14:10;13.10;0.00
83146;DHT22;73037;51.110;4.706;2024-02-28T13:16:36;13.10;0.00
83146;DHT22;73037;51.110;4.706;2024-02-28T13:19:03;13.20;0.00
83146;DHT22;73037;51.110;4.706;2024-02-28T13:21:30;13.10;0.00
83146;DHT22;73037;51.110;4.706;2024-02-28T13:23:58;12.90;0.00
83146;DHT22;73037;51.110;4.706;2024-02-28T13:26:24;12.90;0.00
83146;DHT22;73037;51.110;4.706;2024-02-28T13:28:50;12.80;0.00
83146;DHT22;73037;51.110;4.706;2024-02-28T13:31:15;12.90;0.00
83146;DHT22;73037;51.110;4.706;2024-02-28T13:33:41;12.90;0.00
83146;DHT22;73037;51.110;4.706;2024-02-28T13:36:08;12.90;0.00
83146;DHT22;73037;51.110;4.706;2024-02-28T13:38:33;13.10;0.00
83146;DHT22;73037;51.110;4.706;2024-02-28T13:40:59;13.10;0.00
83146;DHT22;73037;51.110;4.706;2024-02-28T13:43:25;13.00;0.00
83146;DHT22;73037;51.110;4.706;2024-02-28T13:45:51;13.10;0.00
83146;DHT22;73037;51.110;4.706;2024-02-28T13:48:19;13.10;0.00
83146;DHT22;73037;51.110;4.706;2024-02-28T13:50:46;13.30;0.00
83146;DHT22;73037;51.110;4.706;2024-02-28T13:53:13;13.40;0.00
83146;DHT22;73037;51.110;4.706;2024-02-28T13:55:39;13.50;0.00
83146;DHT22;73037;51.110;4.706;2024-02-28T13:58:05;13.60;0.00
83146;DHT22;73037;51.110;4.706;2024-02-28T14:00:32;13.80;0.00
83146;DHT22;73037;51.110;4.706;2024-02-28T14:02:58;13.70;0.00
83146;DHT22;73037;51.110;4.706;2024-02-28T14:05:24;13.70;0.00
83146;DHT22;73037;51.110;4.706;2024-02-28T14:07:53;13.60;0.00
83146;DHT22;73037;51.110;4.706;2024-02-28T14:10:18;13.70;0.00
83146;DHT22;73037;51.110;4.706;2024-02-28T14:12:44;13.90;0.00
83146;DHT22;73037;51.110;4.706;2024-02-28T14:15:10;13.70;0.00
83146;DHT22;73037;51.110;4.706;2024-02-28T14:17:37;13.50;0.00
83146;DHT22;73037;51.110;4.706;2024-02-28T14:20:04;13.30;0.00
83146;DHT22;73037;51.110;4.706;2024-02-28T14:22:30;13.30;0.00
83146;DHT22;73037;51.110;4.706;2024-02-28T14:24:56;13.50;0.00
83146;DHT22;73037;51.110;4.706;2024-02-28T14:27:21;13.50;0.00
83146;DHT22;73037;51.110;4.706;2024-02-28T14:29:47;13.60;0.00
83146;DHT22;73037;51.110;4.706;2024-02-28T14:32:15;13.60;0.00
83146;DHT22;73037;51.110;4.706;2024-02-28T14:34:40;13.50;0.00
83146;DHT22;73037;51.110;4.706;2024-02-28T14:37:07;13.50;0.00
83146;DHT22;73037;51.110;4.706;2024-02-28T14:39:33;13.40;0.00
83146;DHT22;73037;51.110;4.706;2024-02-28T14:41:59;13.30;0.00
83146;DHT22;73037;51.110;4.706;2024-02-28T14:44:28;13.10;0.00
83146;DHT22;73037;51.110;4.706;2024-02-28T14:46:56;13.10;0.00
83146;DHT22;73037;51.110;4.706;2024-02-28T14:49:24;13.10;0.00
83146;DHT22;73037;51.110;4.706;2024-02-28T14:51:49;13.00;0.00
83146;DHT22;73037;51.110;4.706;2024-02-28T14:54:17;13.10;0.00
83146;DHT22;73037;51.110;4.706;2024-02-28T14:56:45;13.10;0.00
83146;DHT22;73037;51.110;4.706;2024-02-28T14:59:11;13.10;0.00
83146;DHT22;73037;51.110;4.706;2024-02-28T15:01:36;13.30;0.00
83146;DHT22;73037;51.110;4.706;2024-02-28T15:04:02;13.20;0.00
83146;DHT22;73037;51.110;4.706;2024-02-28T15:06:29;13.30;0.00
83146;DHT22;73037;51.110;4.706;2024-02-28T15:08:54;13.10;0.00
83146;DHT22;73037;51.110;4.706;2024-02-28T15:11:20;13.10;0.00
83146;DHT22;73037;51.110;4.706;2024-02-28T15:13:47;12.90;0.00
83146;DHT22;73037;51.110;4.706;2024-02-28T15:16:13;12.80;0.00
83146;DHT22;73037;51.110;4.706;2024-02-28T15:18:39;12.80;0.00
83146;DHT22;73037;51.110;4.706;2024-02-28T15:21:06;12.80;0.00
83146;DHT22;73037;51.110;4.706;2024-02-28T15:23:32;12.80;0.00
83146;DHT22;73037;51.110;4.706;2024-02-28T15:25:58;12.90;0.00
83146;DHT22;73037;51.110;4.706;2024-02-28T15:28:24;12.90;0.00
83146;DHT22;73037;51.110;4.706;2024-02-28T15:30:52;13.00;0.00
83146;DHT22;73037;51.110;4.706;2024-02-28T15:33:18;13.00;0.00
83146;DHT22;73037;51.110;4.706;2024-02-28T15:35:44;13.00;0.00
83146;DHT22;73037;51.110;4.706;2024-02-28T15:38:10;13.00;0.00
83146;DHT22;73037;51.110;4.706;2024-02-28T15:40:35;12.90;0.00
83146;DHT22;73037;51.110;4.706;2024-02-28T15:43:01;12.90;0.00
83146;DHT22;73037;51.110;4.706;2024-02-28T15:45:27;12.90;0.00
83146;DHT22;73037;51.110;4.706;2024-02-28T15:47:52;12.80;0.00
83146;DHT22;73037;51.110;4.706;2024-02-28T15:50:18;12.70;0.00
83146;DHT22;73037;51.110;4.706;2024-02-28T15:52:44;12.70;0.00